Terminal Aerodrome Forecast
Issued by NWS Sterling, VA

Current Version | Previous Version | Graphics & Text | Print | Product List | Glossary On
Versions: 1 2 3 4 5 6 7 8 9 10 11 12 13 14 15 16 17 18 19 20
266
FTUS41 KLWX 262343 RRA
TAFDCA
TAF
KDCA 262343Z 2700/2724 14004KT P6SM FEW250
     FM270300 15004KT P6SM FEW250
     FM270800 VRB03KT 3SM BR BKN015
     FM271000 14004KT 2SM BR OVC008
     FM271300 15004KT 5SM BR SCT010
     FM271400 17005KT P6SM SCT010
     FM271700 18011G18KT P6SM FEW040=

USA.gov is the U.S. government's official web portal to all federal, state and local government web resources and services.